logo
Search for airport 
image banner adimage banner adimage banner ad
image banner ad

BIIS - Isafjordur

Located in Isafjordur, Iceland

ICAO - BIIS, IATA - IFJ

Data provided by Airmate  

General information

Coordinates: N66°3'29" W23°8'7"
Elevation is 8 feet MSL.
 
Rated:
View ratings:
[VIEW]
View others Airports in Westfjords

Operational data

Special qualification required
Current time UTC:
Current local time:
Weather
TAF: TAF BIIS 131706Z 1317/1320 20005KT 9999 BKN040 BECMG 1317/1319 18017KT
View NOTAMs / SUP AIP / TFR affecting this airport [VIEW]
Communications frequencies: [VIEW]

Runways:

RWY identifierQFULength (ft)Width (ft)SurfaceLDA (ft)
0862°4593139GRAVE
26242°4593139GRAVE

Airport contact information

Address: Isafjordur Iceland

Satellite view of BIIS